sensor_id;sensor_type;location;lat;lon;timestamp;temperature;humidity
20349;DHT22;10332;50.208;18.988;2023-07-22T00:00:20;19.50;99.90
20349;DHT22;10332;50.208;18.988;2023-07-22T00:03:09;19.40;99.90
20349;DHT22;10332;50.208;18.988;2023-07-22T00:05:37;19.40;99.90
20349;DHT22;10332;50.208;18.988;2023-07-22T00:08:04;19.40;99.90
20349;DHT22;10332;50.208;18.988;2023-07-22T00:10:32;19.30;99.90
20349;DHT22;10332;50.208;18.988;2023-07-22T00:12:59;19.30;99.90
20349;DHT22;10332;50.208;18.988;2023-07-22T00:15:28;19.20;99.90
20349;DHT22;10332;50.208;18.988;2023-07-22T00:17:55;19.20;99.90
20349;DHT22;10332;50.208;18.988;2023-07-22T00:20:23;19.20;99.90
20349;DHT22;10332;50.208;18.988;2023-07-22T00:22:51;19.10;99.90
20349;DHT22;10332;50.208;18.988;2023-07-22T00:25:19;19.10;99.90
20349;DHT22;10332;50.208;18.988;2023-07-22T00:27:47;19.10;99.90
20349;DHT22;10332;50.208;18.988;2023-07-22T00:30:14;19.10;99.90
20349;DHT22;10332;50.208;18.988;2023-07-22T00:32:42;19.00;99.90
20349;DHT22;10332;50.208;18.988;2023-07-22T00:35:10;19.10;99.90
20349;DHT22;10332;50.208;18.988;2023-07-22T00:37:38;19.10;99.90
20349;DHT22;10332;50.208;18.988;2023-07-22T00:40:05;19.10;99.90
20349;DHT22;10332;50.208;18.988;2023-07-22T00:42:39;19.00;99.90
20349;DHT22;10332;50.208;18.988;2023-07-22T00:45:07;19.00;99.90
20349;DHT22;10332;50.208;18.988;2023-07-22T00:47:35;19.00;99.90
20349;DHT22;10332;50.208;18.988;2023-07-22T00:50:06;19.00;99.90
20349;DHT22;10332;50.208;18.988;2023-07-22T00:52:35;19.00;99.90
20349;DHT22;10332;50.208;18.988;2023-07-22T00:55:04;19.00;99.90
20349;DHT22;10332;50.208;18.988;2023-07-22T00:57:33;18.90;99.90
20349;DHT22;10332;50.208;18.988;2023-07-22T01:00:00;18.90;99.90
20349;DHT22;10332;50.208;18.988;2023-07-22T01:02:28;18.90;99.90
20349;DHT22;10332;50.208;18.988;2023-07-22T01:04:56;18.90;99.90
20349;DHT22;10332;50.208;18.988;2023-07-22T01:07:23;18.90;99.90
20349;DHT22;10332;50.208;18.988;2023-07-22T01:09:56;18.80;99.90
20349;DHT22;10332;50.208;18.988;2023-07-22T01:12:25;18.80;99.90
20349;DHT22;10332;50.208;18.988;2023-07-22T01:14:53;18.80;99.90
20349;DHT22;10332;50.208;18.988;2023-07-22T01:17:21;18.70;99.90
20349;DHT22;10332;50.208;18.988;2023-07-22T01:19:49;18.70;99.90
20349;DHT22;10332;50.208;18.988;2023-07-22T01:22:17;18.70;99.90
20349;DHT22;10332;50.208;18.988;2023-07-22T01:24:45;18.60;99.90
20349;DHT22;10332;50.208;18.988;2023-07-22T01:27:14;18.70;99.90
20349;DHT22;10332;50.208;18.988;2023-07-22T01:29:41;18.60;99.90
20349;DHT22;10332;50.208;18.988;2023-07-22T01:32:09;18.60;99.90
20349;DHT22;10332;50.208;18.988;2023-07-22T01:34:36;18.50;99.90
20349;DHT22;10332;50.208;18.988;2023-07-22T01:37:04;18.50;99.90
20349;DHT22;10332;50.208;18.988;2023-07-22T01:39:31;18.40;99.90
20349;DHT22;10332;50.208;18.988;2023-07-22T01:41:59;18.50;99.90
20349;DHT22;10332;50.208;18.988;2023-07-22T01:44:27;18.50;99.90
20349;DHT22;10332;50.208;18.988;2023-07-22T01:46:54;18.40;99.90
20349;DHT22;10332;50.208;18.988;2023-07-22T01:49:22;18.40;99.90
20349;DHT22;10332;50.208;18.988;2023-07-22T01:51:51;18.40;99.90
20349;DHT22;10332;50.208;18.988;2023-07-22T01:54:19;18.30;99.90
20349;DHT22;10332;50.208;18.988;2023-07-22T01:56:47;18.40;99.90
20349;DHT22;10332;50.208;18.988;2023-07-22T01:59:14;18.40;99.90
20349;DHT22;10332;50.208;18.988;2023-07-22T02:01:42;18.40;99.90
20349;DHT22;10332;50.208;18.988;2023-07-22T02:04:09;18.40;99.90
20349;DHT22;10332;50.208;18.988;2023-07-22T02:06:38;18.40;99.90
20349;DHT22;10332;50.208;18.988;2023-07-22T02:09:06;18.40;99.90
20349;DHT22;10332;50.208;18.988;2023-07-22T02:11:36;18.50;99.90
20349;DHT22;10332;50.208;18.988;2023-07-22T02:14:03;18.50;99.90
20349;DHT22;10332;50.208;18.988;2023-07-22T02:16:37;18.50;99.90
20349;DHT22;10332;50.208;18.988;2023-07-22T02:19:05;18.50;99.90
20349;DHT22;10332;50.208;18.988;2023-07-22T02:21:32;18.50;99.90
20349;DHT22;10332;50.208;18.988;2023-07-22T02:24:00;18.40;99.90
20349;DHT22;10332;50.208;18.988;2023-07-22T02:26:27;18.40;99.90
20349;DHT22;10332;50.208;18.988;2023-07-22T02:28:55;18.40;99.90
20349;DHT22;10332;50.208;18.988;2023-07-22T02:31:24;18.40;99.90
20349;DHT22;10332;50.208;18.988;2023-07-22T02:33:52;18.40;99.90
20349;DHT22;10332;50.208;18.988;2023-07-22T02:36:20;18.40;99.90
20349;DHT22;10332;50.208;18.988;2023-07-22T02:38:47;18.40;99.90
20349;DHT22;10332;50.208;18.988;2023-07-22T02:41:15;18.40;99.90
20349;DHT22;10332;50.208;18.988;2023-07-22T02:43:42;18.40;99.90
20349;DHT22;10332;50.208;18.988;2023-07-22T02:46:10;18.40;99.90
20349;DHT22;10332;50.208;18.988;2023-07-22T02:48:38;18.40;99.90
20349;DHT22;10332;50.208;18.988;2023-07-22T02:51:07;18.40;99.90
20349;DHT22;10332;50.208;18.988;2023-07-22T02:53:36;18.30;99.90
20349;DHT22;10332;50.208;18.988;2023-07-22T02:56:05;18.30;99.90
20349;DHT22;10332;50.208;18.988;2023-07-22T02:58:34;18.30;99.90
20349;DHT22;10332;50.208;18.988;2023-07-22T03:01:04;18.30;99.90
20349;DHT22;10332;50.208;18.988;2023-07-22T03:03:32;18.30;99.90
20349;DHT22;10332;50.208;18.988;2023-07-22T03:06:01;18.20;99.90
20349;DHT22;10332;50.208;18.988;2023-07-22T03:08:30;18.10;99.90
20349;DHT22;10332;50.208;18.988;2023-07-22T03:10:58;18.10;99.90
20349;DHT22;10332;50.208;18.988;2023-07-22T03:13:25;18.10;99.90
20349;DHT22;10332;50.208;18.988;2023-07-22T03:15:58;18.10;99.90
20349;DHT22;10332;50.208;18.988;2023-07-22T03:18:25;18.00;99.90
20349;DHT22;10332;50.208;18.988;2023-07-22T03:20:53;18.10;99.90
20349;DHT22;10332;50.208;18.988;2023-07-22T03:23:20;18.00;99.90
20349;DHT22;10332;50.208;18.988;2023-07-22T03:25:48;18.00;99.90
20349;DHT22;10332;50.208;18.988;2023-07-22T03:28:15;18.10;99.90
20349;DHT22;10332;50.208;18.988;2023-07-22T03:30:44;18.10;99.90
20349;DHT22;10332;50.208;18.988;2023-07-22T03:33:11;18.10;99.90
20349;DHT22;10332;50.208;18.988;2023-07-22T03:35:38;18.00;99.90
20349;DHT22;10332;50.208;18.988;2023-07-22T03:38:07;18.00;99.90
20349;DHT22;10332;50.208;18.988;2023-07-22T03:40:35;17.90;99.90
20349;DHT22;10332;50.208;18.988;2023-07-22T03:43:02;17.90;99.90
20349;DHT22;10332;50.208;18.988;2023-07-22T03:45:30;17.90;99.90
20349;DHT22;10332;50.208;18.988;2023-07-22T03:47:59;17.90;99.90
20349;DHT22;10332;50.208;18.988;2023-07-22T03:50:28;17.90;99.90
20349;DHT22;10332;50.208;18.988;2023-07-22T03:52:55;17.90;99.90
20349;DHT22;10332;50.208;18.988;2023-07-22T03:55:23;17.80;99.90
20349;DHT22;10332;50.208;18.988;2023-07-22T03:57:51;17.80;99.90
20349;DHT22;10332;50.208;18.988;2023-07-22T04:00:19;17.80;99.90
20349;DHT22;10332;50.208;18.988;2023-07-22T04:02:48;17.80;99.90
20349;DHT22;10332;50.208;18.988;2023-07-22T04:05:16;17.80;99.90
20349;DHT22;10332;50.208;18.988;2023-07-22T04:07:44;17.80;99.90
20349;DHT22;10332;50.208;18.988;2023-07-22T04:10:12;17.70;99.90
20349;DHT22;10332;50.208;18.988;2023-07-22T04:12:40;17.80;99.90
20349;DHT22;10332;50.208;18.988;2023-07-22T04:15:09;17.70;99.90
20349;DHT22;10332;50.208;18.988;2023-07-22T04:17:37;17.70;99.90
20349;DHT22;10332;50.208;18.988;2023-07-22T04:20:05;17.70;99.90
20349;DHT22;10332;50.208;18.988;2023-07-22T04:22:35;17.70;99.90
20349;DHT22;10332;50.208;18.988;2023-07-22T04:25:03;17.70;99.90
20349;DHT22;10332;50.208;18.988;2023-07-22T04:27:31;17.80;99.90
20349;DHT22;10332;50.208;18.988;2023-07-22T04:30:01;17.80;99.90
20349;DHT22;10332;50.208;18.988;2023-07-22T04:32:29;17.80;99.90
20349;DHT22;10332;50.208;18.988;2023-07-22T04:34:57;17.80;99.90
20349;DHT22;10332;50.208;18.988;2023-07-22T04:37:24;17.70;99.90
20349;DHT22;10332;50.208;18.988;2023-07-22T04:39:52;17.70;99.90
20349;DHT22;10332;50.208;18.988;2023-07-22T04:42:19;17.70;99.90
20349;DHT22;10332;50.208;18.988;2023-07-22T04:44:47;17.70;99.90
20349;DHT22;10332;50.208;18.988;2023-07-22T04:47:14;17.70;99.90
20349;DHT22;10332;50.208;18.988;2023-07-22T04:49:43;17.60;99.90
20349;DHT22;10332;50.208;18.988;2023-07-22T04:52:12;17.60;99.90
20349;DHT22;10332;50.208;18.988;2023-07-22T04:54:40;17.60;99.90
20349;DHT22;10332;50.208;18.988;2023-07-22T04:57:08;17.70;99.90
20349;DHT22;10332;50.208;18.988;2023-07-22T04:59:36;17.70;99.90
20349;DHT22;10332;50.208;18.988;2023-07-22T05:02:04;17.80;99.90
20349;DHT22;10332;50.208;18.988;2023-07-22T05:04:32;17.80;99.90
20349;DHT22;10332;50.208;18.988;2023-07-22T05:06:59;17.90;99.90
20349;DHT22;10332;50.208;18.988;2023-07-22T05:09:27;18.00;99.90
20349;DHT22;10332;50.208;18.988;2023-07-22T05:11:54;18.00;99.90
20349;DHT22;10332;50.208;18.988;2023-07-22T05:14:23;18.00;99.90
20349;DHT22;10332;50.208;18.988;2023-07-22T05:16:51;18.10;99.90
20349;DHT22;10332;50.208;18.988;2023-07-22T05:19:18;18.10;99.90
20349;DHT22;10332;50.208;18.988;2023-07-22T05:21:47;18.10;99.90
20349;DHT22;10332;50.208;18.988;2023-07-22T05:24:15;18.10;99.90
20349;DHT22;10332;50.208;18.988;2023-07-22T05:26:42;18.00;99.90
20349;DHT22;10332;50.208;18.988;2023-07-22T05:29:25;18.10;99.90
20349;DHT22;10332;50.208;18.988;2023-07-22T05:31:52;18.20;99.90
20349;DHT22;10332;50.208;18.988;2023-07-22T05:34:20;18.20;99.90
20349;DHT22;10332;50.208;18.988;2023-07-22T05:36:47;18.30;99.90
20349;DHT22;10332;50.208;18.988;2023-07-22T05:39:15;18.40;99.90
20349;DHT22;10332;50.208;18.988;2023-07-22T05:41:44;18.40;99.90
20349;DHT22;10332;50.208;18.988;2023-07-22T05:44:12;18.40;99.90
20349;DHT22;10332;50.208;18.988;2023-07-22T05:46:39;18.40;99.90
20349;DHT22;10332;50.208;18.988;2023-07-22T05:49:07;18.40;99.90
20349;DHT22;10332;50.208;18.988;2023-07-22T05:51:35;18.40;99.90
20349;DHT22;10332;50.208;18.988;2023-07-22T05:54:03;18.40;99.90
20349;DHT22;10332;50.208;18.988;2023-07-22T05:56:31;18.40;99.90
20349;DHT22;10332;50.208;18.988;2023-07-22T05:58:59;18.30;99.90
20349;DHT22;10332;50.208;18.988;2023-07-22T06:01:26;18.30;99.90
20349;DHT22;10332;50.208;18.988;2023-07-22T06:03:54;18.30;99.90
20349;DHT22;10332;50.208;18.988;2023-07-22T06:06:21;18.40;99.90
20349;DHT22;10332;50.208;18.988;2023-07-22T06:08:50;18.40;99.90
20349;DHT22;10332;50.208;18.988;2023-07-22T06:11:18;18.40;99.90
20349;DHT22;10332;50.208;18.988;2023-07-22T06:13:45;18.40;99.90
20349;DHT22;10332;50.208;18.988;2023-07-22T06:16:13;18.50;99.90
20349;DHT22;10332;50.208;18.988;2023-07-22T06:18:41;18.50;99.90
20349;DHT22;10332;50.208;18.988;2023-07-22T06:21:08;18.50;99.90
20349;DHT22;10332;50.208;18.988;2023-07-22T06:23:36;18.60;99.90
20349;DHT22;10332;50.208;18.988;2023-07-22T06:26:04;18.60;99.90
20349;DHT22;10332;50.208;18.988;2023-07-22T06:28:31;18.70;99.90
20349;DHT22;10332;50.208;18.988;2023-07-22T06:30:59;18.80;99.90
20349;DHT22;10332;50.208;18.988;2023-07-22T06:33:26;18.90;99.40
20349;DHT22;10332;50.208;18.988;2023-07-22T06:35:53;19.10;97.90
20349;DHT22;10332;50.208;18.988;2023-07-22T06:38:21;19.30;95.70
20349;DHT22;10332;50.208;18.988;2023-07-22T06:40:48;19.20;94.20
20349;DHT22;10332;50.208;18.988;2023-07-22T06:43:19;19.20;93.50
20349;DHT22;10332;50.208;18.988;2023-07-22T06:45:46;19.30;94.80
20349;DHT22;10332;50.208;18.988;2023-07-22T06:48:14;19.50;93.00
20349;DHT22;10332;50.208;18.988;2023-07-22T06:50:50;19.60;90.70
20349;DHT22;10332;50.208;18.988;2023-07-22T06:53:18;19.60;91.20
20349;DHT22;10332;50.208;18.988;2023-07-22T06:55:50;19.80;90.10
20349;DHT22;10332;50.208;18.988;2023-07-22T06:58:21;19.90;87.00
20349;DHT22;10332;50.208;18.988;2023-07-22T07:00:54;20.00;84.00
20349;DHT22;10332;50.208;18.988;2023-07-22T07:03:23;20.10;78.60
20349;DHT22;10332;50.208;18.988;2023-07-22T07:05:54;20.10;78.90
20349;DHT22;10332;50.208;18.988;2023-07-22T07:08:23;20.20;78.80
20349;DHT22;10332;50.208;18.988;2023-07-22T07:10:51;20.20;75.60
20349;DHT22;10332;50.208;18.988;2023-07-22T07:13:19;20.10;73.90
20349;DHT22;10332;50.208;18.988;2023-07-22T07:15:47;20.10;77.40
20349;DHT22;10332;50.208;18.988;2023-07-22T07:18:18;20.00;79.70
20349;DHT22;10332;50.208;18.988;2023-07-22T07:20:46;20.10;82.10
20349;DHT22;10332;50.208;18.988;2023-07-22T07:23:14;20.00;78.70
20349;DHT22;10332;50.208;18.988;2023-07-22T07:25:43;20.00;80.30
20349;DHT22;10332;50.208;18.988;2023-07-22T07:28:11;20.10;74.50
20349;DHT22;10332;50.208;18.988;2023-07-22T07:30:40;20.20;73.20
20349;DHT22;10332;50.208;18.988;2023-07-22T07:33:07;20.40;74.00
20349;DHT22;10332;50.208;18.988;2023-07-22T07:35:35;20.60;69.60
20349;DHT22;10332;50.208;18.988;2023-07-22T07:38:02;20.70;64.90
20349;DHT22;10332;50.208;18.988;2023-07-22T07:40:31;20.80;65.00
20349;DHT22;10332;50.208;18.988;2023-07-22T07:42:59;20.80;59.60
20349;DHT22;10332;50.208;18.988;2023-07-22T07:45:26;20.90;59.00
20349;DHT22;10332;50.208;18.988;2023-07-22T07:47:54;20.90;58.30
20349;DHT22;10332;50.208;18.988;2023-07-22T07:50:21;21.00;55.00
20349;DHT22;10332;50.208;18.988;2023-07-22T07:52:49;21.00;56.30
20349;DHT22;10332;50.208;18.988;2023-07-22T07:55:17;21.00;56.80
20349;DHT22;10332;50.208;18.988;2023-07-22T07:57:46;21.10;57.00
20349;DHT22;10332;50.208;18.988;2023-07-22T08:00:14;21.20;54.00
20349;DHT22;10332;50.208;18.988;2023-07-22T08:02:42;21.40;52.00
20349;DHT22;10332;50.208;18.988;2023-07-22T08:05:09;21.50;43.80
20349;DHT22;10332;50.208;18.988;2023-07-22T08:07:38;21.60;42.20
20349;DHT22;10332;50.208;18.988;2023-07-22T08:10:06;21.80;46.10
20349;DHT22;10332;50.208;18.988;2023-07-22T08:12:37;22.00;44.70
20349;DHT22;10332;50.208;18.988;2023-07-22T08:15:05;22.10;41.30
20349;DHT22;10332;50.208;18.988;2023-07-22T08:17:33;22.20;35.70
20349;DHT22;10332;50.208;18.988;2023-07-22T08:20:00;22.40;33.50
20349;DHT22;10332;50.208;18.988;2023-07-22T08:22:28;22.30;31.50
20349;DHT22;10332;50.208;18.988;2023-07-22T08:24:55;22.40;28.20
20349;DHT22;10332;50.208;18.988;2023-07-22T08:27:24;22.50;27.40
20349;DHT22;10332;50.208;18.988;2023-07-22T08:29:51;22.70;28.80
20349;DHT22;10332;50.208;18.988;2023-07-22T08:32:19;22.80;24.30
20349;DHT22;10332;50.208;18.988;2023-07-22T08:34:46;22.70;24.80
20349;DHT22;10332;50.208;18.988;2023-07-22T08:37:14;22.60;27.40
20349;DHT22;10332;50.208;18.988;2023-07-22T08:39:41;22.60;27.90
20349;DHT22;10332;50.208;18.988;2023-07-22T08:42:09;22.60;28.90
20349;DHT22;10332;50.208;18.988;2023-07-22T08:44:42;22.60;28.70
20349;DHT22;10332;50.208;18.988;2023-07-22T08:47:16;22.70;28.30
20349;DHT22;10332;50.208;18.988;2023-07-22T08:49:52;22.90;28.60
20349;DHT22;10332;50.208;18.988;2023-07-22T08:52:25;23.00;23.90
20349;DHT22;10332;50.208;18.988;2023-07-22T08:54:53;23.10;22.50
20349;DHT22;10332;50.208;18.988;2023-07-22T08:57:22;23.10;22.10
20349;DHT22;10332;50.208;18.988;2023-07-22T08:59:51;23.10;20.80
20349;DHT22;10332;50.208;18.988;2023-07-22T09:02:20;23.10;16.40
20349;DHT22;10332;50.208;18.988;2023-07-22T09:04:48;23.00;14.50
20349;DHT22;10332;50.208;18.988;2023-07-22T09:07:16;23.00;15.00
20349;DHT22;10332;50.208;18.988;2023-07-22T09:09:46;23.10;17.80
20349;DHT22;10332;50.208;18.988;2023-07-22T09:12:14;23.10;16.50
20349;DHT22;10332;50.208;18.988;2023-07-22T09:14:43;23.30;16.60
20349;DHT22;10332;50.208;18.988;2023-07-22T09:17:12;23.40;17.20
20349;DHT22;10332;50.208;18.988;2023-07-22T09:19:39;23.50;12.00
20349;DHT22;10332;50.208;18.988;2023-07-22T09:22:10;23.60;7.10
20349;DHT22;10332;50.208;18.988;2023-07-22T09:24:37;23.60;8.00
20349;DHT22;10332;50.208;18.988;2023-07-22T09:27:06;23.70;9.80
20349;DHT22;10332;50.208;18.988;2023-07-22T09:29:34;23.70;9.70
20349;DHT22;10332;50.208;18.988;2023-07-22T09:32:07;23.90;12.30
20349;DHT22;10332;50.208;18.988;2023-07-22T09:34:34;24.10;13.10
20349;DHT22;10332;50.208;18.988;2023-07-22T09:37:02;24.50;8.80
20349;DHT22;10332;50.208;18.988;2023-07-22T09:39:35;24.70;9.00
20349;DHT22;10332;50.208;18.988;2023-07-22T09:42:03;24.80;6.70
20349;DHT22;10332;50.208;18.988;2023-07-22T09:44:31;24.80;4.10
20349;DHT22;10332;50.208;18.988;2023-07-22T09:47:06;24.80;2.00
20349;DHT22;10332;50.208;18.988;2023-07-22T09:49:40;25.30;3.30
20349;DHT22;10332;50.208;18.988;2023-07-22T09:52:10;25.70;1.00
20349;DHT22;10332;50.208;18.988;2023-07-22T09:54:48;26.30;1.00
20349;DHT22;10332;50.208;18.988;2023-07-22T09:57:18;26.50;1.00
20349;DHT22;10332;50.208;18.988;2023-07-22T09:59:49;26.50;1.00
20349;DHT22;10332;50.208;18.988;2023-07-22T10:02:22;26.40;1.00
20349;DHT22;10332;50.208;18.988;2023-07-22T10:04:52;26.70;1.00
20349;DHT22;10332;50.208;18.988;2023-07-22T10:07:33;26.80;1.00
20349;DHT22;10332;50.208;18.988;2023-07-22T10:10:04;27.00;1.00
20349;DHT22;10332;50.208;18.988;2023-07-22T10:12:33;27.30;1.00
20349;DHT22;10332;50.208;18.988;2023-07-22T10:15:02;27.30;1.00
20349;DHT22;10332;50.208;18.988;2023-07-22T10:17:31;27.20;1.00
20349;DHT22;10332;50.208;18.988;2023-07-22T10:19:59;26.60;1.00
20349;DHT22;10332;50.208;18.988;2023-07-22T10:22:28;26.20;1.00
20349;DHT22;10332;50.208;18.988;2023-07-22T10:24:57;25.80;1.00
20349;DHT22;10332;50.208;18.988;2023-07-22T10:27:26;25.60;1.00
20349;DHT22;10332;50.208;18.988;2023-07-22T10:29:59;25.90;1.00
20349;DHT22;10332;50.208;18.988;2023-07-22T10:35:40;26.80;1.00
20349;DHT22;10332;50.208;18.988;2023-07-22T10:38:11;27.50;1.00
20349;DHT22;10332;50.208;18.988;2023-07-22T10:40:51;28.20;1.00
20349;DHT22;10332;50.208;18.988;2023-07-22T10:43:31;28.60;1.00
20349;DHT22;10332;50.208;18.988;2023-07-22T10:46:10;29.10;1.00
20349;DHT22;10332;50.208;18.988;2023-07-22T10:48:41;29.60;1.00
20349;DHT22;10332;50.208;18.988;2023-07-22T10:51:14;29.60;1.00
20349;DHT22;10332;50.208;18.988;2023-07-22T10:53:48;29.50;1.00
20349;DHT22;10332;50.208;18.988;2023-07-22T10:56:20;29.30;1.00
20349;DHT22;10332;50.208;18.988;2023-07-22T11:14:50;27.20;1.00
20349;DHT22;10332;50.208;18.988;2023-07-22T11:17:28;27.00;1.00
20349;DHT22;10332;50.208;18.988;2023-07-22T11:20:01;26.90;1.00
20349;DHT22;10332;50.208;18.988;2023-07-22T11:22:29;26.90;1.00
20349;DHT22;10332;50.208;18.988;2023-07-22T11:24:57;26.80;1.00
20349;DHT22;10332;50.208;18.988;2023-07-22T11:27:25;26.90;1.00
20349;DHT22;10332;50.208;18.988;2023-07-22T11:29:53;26.90;1.00
20349;DHT22;10332;50.208;18.988;2023-07-22T11:32:20;26.90;1.00
20349;DHT22;10332;50.208;18.988;2023-07-22T11:34:51;26.90;1.00
20349;DHT22;10332;50.208;18.988;2023-07-22T11:37:20;26.60;1.00
20349;DHT22;10332;50.208;18.988;2023-07-22T11:39:48;26.40;1.00
20349;DHT22;10332;50.208;18.988;2023-07-22T11:42:15;26.10;1.00
20349;DHT22;10332;50.208;18.988;2023-07-22T11:44:43;25.70;1.00
20349;DHT22;10332;50.208;18.988;2023-07-22T11:47:11;25.40;1.00
20349;DHT22;10332;50.208;18.988;2023-07-22T11:49:41;25.10;1.00
20349;DHT22;10332;50.208;18.988;2023-07-22T11:52:16;24.80;1.00
20349;DHT22;10332;50.208;18.988;2023-07-22T11:54:46;24.60;1.00
20349;DHT22;10332;50.208;18.988;2023-07-22T11:57:22;24.60;1.00
20349;DHT22;10332;50.208;18.988;2023-07-22T11:59:52;24.70;1.00
20349;DHT22;10332;50.208;18.988;2023-07-22T12:02:24;25.00;1.00
20349;DHT22;10332;50.208;18.988;2023-07-22T12:04:59;25.50;1.00
20349;DHT22;10332;50.208;18.988;2023-07-22T12:07:30;25.80;1.00
20349;DHT22;10332;50.208;18.988;2023-07-22T12:10:08;26.00;1.00
20349;DHT22;10332;50.208;18.988;2023-07-22T12:12:41;26.10;1.00
20349;DHT22;10332;50.208;18.988;2023-07-22T12:15:17;26.00;1.00
20349;DHT22;10332;50.208;18.988;2023-07-22T12:17:53;26.00;1.00
20349;DHT22;10332;50.208;18.988;2023-07-22T12:20:34;26.00;1.00
20349;DHT22;10332;50.208;18.988;2023-07-22T12:23:02;25.70;1.00
20349;DHT22;10332;50.208;18.988;2023-07-22T12:25:32;25.40;1.00
20349;DHT22;10332;50.208;18.988;2023-07-22T12:27:59;25.20;1.00
20349;DHT22;10332;50.208;18.988;2023-07-22T12:30:27;25.00;1.00
20349;DHT22;10332;50.208;18.988;2023-07-22T12:32:55;24.80;1.00
20349;DHT22;10332;50.208;18.988;2023-07-22T12:35:23;24.60;1.00
20349;DHT22;10332;50.208;18.988;2023-07-22T12:37:50;24.50;1.00
20349;DHT22;10332;50.208;18.988;2023-07-22T12:40:18;24.50;1.00
20349;DHT22;10332;50.208;18.988;2023-07-22T12:42:46;24.50;1.00
20349;DHT22;10332;50.208;18.988;2023-07-22T12:45:13;24.50;1.00
20349;DHT22;10332;50.208;18.988;2023-07-22T12:47:41;24.60;1.00
20349;DHT22;10332;50.208;18.988;2023-07-22T12:50:09;24.40;1.00
20349;DHT22;10332;50.208;18.988;2023-07-22T12:52:37;24.30;1.00
20349;DHT22;10332;50.208;18.988;2023-07-22T12:55:05;24.30;1.00
20349;DHT22;10332;50.208;18.988;2023-07-22T12:57:32;24.30;1.00
20349;DHT22;10332;50.208;18.988;2023-07-22T13:00:00;24.40;1.00
20349;DHT22;10332;50.208;18.988;2023-07-22T13:02:28;24.70;1.00
20349;DHT22;10332;50.208;18.988;2023-07-22T13:04:55;25.10;1.00
20349;DHT22;10332;50.208;18.988;2023-07-22T13:07:23;25.50;1.00
20349;DHT22;10332;50.208;18.988;2023-07-22T13:09:51;25.70;1.00
20349;DHT22;10332;50.208;18.988;2023-07-22T13:12:20;25.90;1.00
20349;DHT22;10332;50.208;18.988;2023-07-22T13:14:48;26.10;1.00
20349;DHT22;10332;50.208;18.988;2023-07-22T13:17:15;26.10;1.00
20349;DHT22;10332;50.208;18.988;2023-07-22T13:19:43;26.10;1.00
20349;DHT22;10332;50.208;18.988;2023-07-22T13:22:10;25.90;1.00
20349;DHT22;10332;50.208;18.988;2023-07-22T13:24:38;25.80;1.00
20349;DHT22;10332;50.208;18.988;2023-07-22T13:27:06;25.80;1.00
20349;DHT22;10332;50.208;18.988;2023-07-22T13:29:34;25.80;1.00
20349;DHT22;10332;50.208;18.988;2023-07-22T13:32:01;25.70;1.00
20349;DHT22;10332;50.208;18.988;2023-07-22T13:34:31;25.60;1.00
20349;DHT22;10332;50.208;18.988;2023-07-22T13:36:59;25.40;1.00
20349;DHT22;10332;50.208;18.988;2023-07-22T13:39:29;25.20;1.00
20349;DHT22;10332;50.208;18.988;2023-07-22T13:41:56;25.10;1.00
20349;DHT22;10332;50.208;18.988;2023-07-22T13:44:24;25.00;1.00
20349;DHT22;10332;50.208;18.988;2023-07-22T13:46:51;24.90;1.00
20349;DHT22;10332;50.208;18.988;2023-07-22T13:49:19;24.80;1.00
20349;DHT22;10332;50.208;18.988;2023-07-22T13:51:46;24.90;1.00
20349;DHT22;10332;50.208;18.988;2023-07-22T13:54:13;24.90;1.00
20349;DHT22;10332;50.208;18.988;2023-07-22T13:56:41;25.10;1.00
20349;DHT22;10332;50.208;18.988;2023-07-22T13:59:10;25.50;1.00
20349;DHT22;10332;50.208;18.988;2023-07-22T14:01:38;25.80;1.00
20349;DHT22;10332;50.208;18.988;2023-07-22T14:04:05;26.00;1.00
20349;DHT22;10332;50.208;18.988;2023-07-22T14:06:33;26.10;1.00
20349;DHT22;10332;50.208;18.988;2023-07-22T14:09:01;26.20;1.00
20349;DHT22;10332;50.208;18.988;2023-07-22T14:11:28;26.20;1.00
20349;DHT22;10332;50.208;18.988;2023-07-22T14:13:56;26.10;1.00
20349;DHT22;10332;50.208;18.988;2023-07-22T14:16:23;26.10;1.00
20349;DHT22;10332;50.208;18.988;2023-07-22T14:18:51;26.10;1.00
20349;DHT22;10332;50.208;18.988;2023-07-22T14:21:19;26.20;1.00
20349;DHT22;10332;50.208;18.988;2023-07-22T14:23:47;26.20;1.00
20349;DHT22;10332;50.208;18.988;2023-07-22T14:26:14;26.20;1.00
20349;DHT22;10332;50.208;18.988;2023-07-22T14:28:42;26.30;1.00
20349;DHT22;10332;50.208;18.988;2023-07-22T14:31:09;26.30;1.00
20349;DHT22;10332;50.208;18.988;2023-07-22T14:33:37;26.40;1.00
20349;DHT22;10332;50.208;18.988;2023-07-22T14:36:05;26.40;1.00
20349;DHT22;10332;50.208;18.988;2023-07-22T14:38:33;26.40;1.00
20349;DHT22;10332;50.208;18.988;2023-07-22T14:41:00;26.40;1.00
20349;DHT22;10332;50.208;18.988;2023-07-22T14:43:28;26.30;1.00
20349;DHT22;10332;50.208;18.988;2023-07-22T14:45:55;26.20;1.00
20349;DHT22;10332;50.208;18.988;2023-07-22T14:48:23;26.10;1.00
20349;DHT22;10332;50.208;18.988;2023-07-22T14:50:50;26.10;1.00
20349;DHT22;10332;50.208;18.988;2023-07-22T14:53:18;26.00;1.00
20349;DHT22;10332;50.208;18.988;2023-07-22T14:55:45;25.90;1.00
20349;DHT22;10332;50.208;18.988;2023-07-22T14:58:13;25.80;1.00
20349;DHT22;10332;50.208;18.988;2023-07-22T15:00:40;25.70;1.00
20349;DHT22;10332;50.208;18.988;2023-07-22T15:03:08;25.70;1.00
20349;DHT22;10332;50.208;18.988;2023-07-22T15:05:36;25.70;1.00
20349;DHT22;10332;50.208;18.988;2023-07-22T15:08:04;25.70;1.00
20349;DHT22;10332;50.208;18.988;2023-07-22T15:10:31;25.80;1.00
20349;DHT22;10332;50.208;18.988;2023-07-22T15:12:59;25.80;1.00
20349;DHT22;10332;50.208;18.988;2023-07-22T15:15:27;25.80;1.00
20349;DHT22;10332;50.208;18.988;2023-07-22T15:17:55;25.70;1.00
20349;DHT22;10332;50.208;18.988;2023-07-22T15:20:22;25.70;1.00
20349;DHT22;10332;50.208;18.988;2023-07-22T15:22:50;25.80;1.00
20349;DHT22;10332;50.208;18.988;2023-07-22T15:25:18;25.80;1.00
20349;DHT22;10332;50.208;18.988;2023-07-22T15:27:46;25.80;1.00
20349;DHT22;10332;50.208;18.988;2023-07-22T15:30:13;25.90;1.00
20349;DHT22;10332;50.208;18.988;2023-07-22T15:32:40;25.90;1.00
20349;DHT22;10332;50.208;18.988;2023-07-22T15:35:09;26.00;1.00
20349;DHT22;10332;50.208;18.988;2023-07-22T15:37:37;26.00;1.00
20349;DHT22;10332;50.208;18.988;2023-07-22T15:40:05;25.80;1.00
20349;DHT22;10332;50.208;18.988;2023-07-22T15:42:33;25.70;1.00
20349;DHT22;10332;50.208;18.988;2023-07-22T15:45:00;25.60;1.00
20349;DHT22;10332;50.208;18.988;2023-07-22T15:47:28;25.50;1.00
20349;DHT22;10332;50.208;18.988;2023-07-22T15:49:56;25.40;1.00